Time;durP1;ratioP1;P1;durP2;ratioP2;P2;SDS_P1;SDS_P2;PMS_P1;PMS_P2;Temp;Humidity;BMP_temperature;BMP_pressure;BME280_temperature;BME280_humidity;BME280_pressure;Samples;Min_cycle;Max_cycle;Signal;HPM_P1;HPM_P2
2021/06/11 00:01:17;;;;;;;9.53;5.40;;;;;;;;;;4992878;28;20432;-69
2021/06/11 00:03:43;;;;;;;6.47;4.67;;;;;;;;;;4975284;28;20427;-68
2021/06/11 00:06:09;;;;;;;7.30;5.43;;;;;;;;;;4974706;28;20934;-69
2021/06/11 00:08:36;;;;;;;5.90;4.80;;;;;;;;;;4994735;28;20423;-68
2021/06/11 00:11:02;;;;;;;7.23;5.33;;;;;;;;;;4993583;28;20401;-69
2021/06/11 00:13:28;;;;;;;7.67;5.50;;;;;;;;;;4992679;28;20422;-68
2021/06/11 00:15:54;;;;;;;8.70;5.43;;;;;;;;;;4994554;28;20400;-68
2021/06/11 00:18:20;;;;;;;7.47;5.60;;;;;;;;;;4992019;28;20555;-68
2021/06/11 00:20:46;;;;;;;6.50;5.30;;;;;;;;;;4994384;28;20475;-68
2021/06/11 00:23:12;;;;;;;8.27;5.93;;;;;;;;;;4993636;28;20573;-68
2021/06/11 00:25:38;;;;;;;7.77;5.67;;;;;;;;;;4994425;28;20439;-68
2021/06/11 00:28:05;;;;;;;7.00;5.57;;;;;;;;;;4978021;28;20976;-68
2021/06/11 00:30:32;;;;;;;8.13;5.70;;;;;;;;;;4975292;28;20410;-68
2021/06/11 00:32:58;;;;;;;7.87;6.07;;;;;;;;;;4988017;28;20431;-68
2021/06/11 00:35:24;;;;;;;6.77;5.70;;;;;;;;;;4994667;28;20452;-68
2021/06/11 00:37:50;;;;;;;7.40;5.50;;;;;;;;;;4980486;28;20596;-67
2021/06/11 00:40:16;;;;;;;8.80;5.50;;;;;;;;;;4973617;28;20775;-68
2021/06/11 00:42:43;;;;;;;7.40;5.40;;;;;;;;;;4984366;28;20436;-68
2021/06/11 00:45:09;;;;;;;8.10;4.93;;;;;;;;;;4974400;28;20478;-69
2021/06/11 00:47:36;;;;;;;8.60;5.47;;;;;;;;;;4982092;28;20477;-68
2021/06/11 00:50:02;;;;;;;5.90;5.20;;;;;;;;;;4976754;28;20433;-68
2021/06/11 00:52:31;;;;;;;7.67;5.00;;;;;;;;;;4993175;28;20447;-68
2021/06/11 00:54:58;;;;;;;6.80;5.03;;;;;;;;;;4992552;28;20413;-68
2021/06/11 00:57:24;;;;;;;6.10;4.90;;;;;;;;;;4983887;28;20507;-68
2021/06/11 00:59:50;;;;;;;5.13;4.37;;;;;;;;;;4974367;28;20402;-68
2021/06/11 01:02:16;;;;;;;8.20;5.40;;;;;;;;;;4978520;28;20432;-68
2021/06/11 01:04:42;;;;;;;9.03;4.70;;;;;;;;;;4993869;28;20401;-68
2021/06/11 01:07:08;;;;;;;5.00;4.20;;;;;;;;;;4992174;28;20468;-68
2021/06/11 01:09:38;;;;;;;5.77;5.10;;;;;;;;;;4993741;28;20397;-68
2021/06/11 01:12:06;;;;;;;6.70;4.17;;;;;;;;;;4990158;28;20420;-68
2021/06/11 01:14:32;;;;;;;5.33;4.50;;;;;;;;;;4974150;28;20409;-68
2021/06/11 01:16:58;;;;;;;7.93;5.67;;;;;;;;;;4974051;28;20504;-69
2021/06/11 01:19:33;;;;;;;5.77;4.70;;;;;;;;;;4974002;28;20417;-68
2021/06/11 01:22:01;;;;;;;6.50;5.10;;;;;;;;;;4973806;28;20389;-69
2021/06/11 01:24:29;;;;;;;5.53;4.93;;;;;;;;;;4973948;28;20786;-68
2021/06/11 01:26:57;;;;;;;6.63;4.77;;;;;;;;;;4973932;28;20477;-68
2021/06/11 01:29:27;;;;;;;6.07;5.43;;;;;;;;;;4992362;28;20507;-68
2021/06/11 01:31:57;;;;;;;5.93;5.33;;;;;;;;;;4993663;28;20765;-68
2021/06/11 01:34:32;;;;;;;6.67;5.00;;;;;;;;;;4992629;28;20470;-68
2021/06/11 01:37:05;;;;;;;5.93;5.33;;;;;;;;;;4993489;28;20428;-68
2021/06/11 01:39:32;;;;;;;7.70;5.07;;;;;;;;;;4992983;28;20413;-68
2021/06/11 01:41:59;;;;;;;6.37;5.77;;;;;;;;;;4993345;28;20434;-68
2021/06/11 01:44:27;;;;;;;6.90;4.87;;;;;;;;;;4992274;28;20948;-68
2021/06/11 01:46:58;;;;;;;6.60;5.10;;;;;;;;;;4993466;28;20459;-68
2021/06/11 01:49:25;;;;;;;6.00;5.13;;;;;;;;;;4990832;28;20833;-68
2021/06/11 01:51:51;;;;;;;5.80;5.20;;;;;;;;;;4993348;28;20742;-68
2021/06/11 01:54:18;;;;;;;5.57;4.97;;;;;;;;;;4994166;28;20420;-68
2021/06/11 01:56:44;;;;;;;6.27;5.53;;;;;;;;;;4997073;28;20432;-68
2021/06/11 01:59:11;;;;;;;7.67;5.20;;;;;;;;;;4994297;28;20578;-68
2021/06/11 02:01:37;;;;;;;9.27;5.97;;;;;;;;;;4996306;28;20405;-68
2021/06/11 02:04:04;;;;;;;7.50;5.90;;;;;;;;;;4995102;28;20420;-68
2021/06/11 02:06:30;;;;;;;16.27;6.70;;;;;;;;;;4985223;28;20987;-68
2021/06/11 02:08:57;;;;;;;7.57;5.40;;;;;;;;;;4975992;28;20445;-68
2021/06/11 02:11:23;;;;;;;6.17;5.20;;;;;;;;;;4977499;28;20432;-68
2021/06/11 02:13:50;;;;;;;7.17;5.50;;;;;;;;;;4975931;28;20433;-68
2021/06/11 02:16:18;;;;;;;7.77;5.80;;;;;;;;;;4977582;28;20409;-68
2021/06/11 02:18:45;;;;;;;6.70;5.23;;;;;;;;;;4982449;28;20452;-68
2021/06/11 02:21:13;;;;;;;7.10;5.00;;;;;;;;;;4996658;28;20504;-68
2021/06/11 02:23:39;;;;;;;7.20;5.60;;;;;;;;;;4995942;28;20420;-68
2021/06/11 02:26:05;;;;;;;6.10;4.70;;;;;;;;;;4996503;28;20423;-68
2021/06/11 02:28:31;;;;;;;6.20;4.93;;;;;;;;;;4995518;28;20459;-68
2021/06/11 02:30:58;;;;;;;7.90;5.60;;;;;;;;;;4996648;28;20397;-68
2021/06/11 02:33:25;;;;;;;6.13;5.53;;;;;;;;;;4994290;28;20511;-68
2021/06/11 02:35:51;;;;;;;5.40;4.53;;;;;;;;;;4996905;28;20777;-68
2021/06/11 02:38:17;;;;;;;7.03;5.17;;;;;;;;;;4995425;28;20462;-68
2021/06/11 02:40:43;;;;;;;7.10;5.20;;;;;;;;;;4996079;28;20412;-68
2021/06/11 02:43:13;;;;;;;6.40;5.33;;;;;;;;;;4995171;28;20405;-69
2021/06/11 02:45:49;;;;;;;5.77;5.17;;;;;;;;;;4993211;28;20448;-68
2021/06/11 02:48:26;;;;;;;9.03;5.10;;;;;;;;;;4995230;28;20432;-68
2021/06/11 02:51:12;;;;;;;7.07;5.50;;;;;;;;;;4996663;28;20403;-68
2021/06/11 02:53:41;;;;;;;6.83;5.50;;;;;;;;;;4983103;28;20433;-68
2021/06/11 02:56:10;;;;;;;6.13;5.20;;;;;;;;;;4997182;28;20463;-69
2021/06/11 02:58:56;;;;;;;5.73;4.97;;;;;;;;;;4992189;28;20885;-68
2021/06/11 03:01:22;;;;;;;6.20;5.60;;;;;;;;;;4977712;28;20488;-69
2021/06/11 03:03:50;;;;;;;5.43;4.67;;;;;;;;;;4977970;28;20426;-69
2021/06/11 03:06:17;;;;;;;6.27;5.30;;;;;;;;;;4989376;28;20453;-69
2021/06/11 03:08:44;;;;;;;5.50;4.67;;;;;;;;;;4996072;28;20448;-68
2021/06/11 03:11:13;;;;;;;6.00;4.93;;;;;;;;;;4997313;28;20405;-69
2021/06/11 03:13:41;;;;;;;7.00;5.60;;;;;;;;;;4992329;28;20430;-69
2021/06/11 03:16:08;;;;;;;7.60;5.80;;;;;;;;;;4977674;28;20432;-68
2021/06/11 03:18:34;;;;;;;8.37;6.30;;;;;;;;;;4980074;28;20455;-69
2021/06/11 03:21:03;;;;;;;10.70;6.20;;;;;;;;;;4996648;28;20401;-69
2021/06/11 03:23:31;;;;;;;6.97;5.47;;;;;;;;;;4995173;28;20411;-68
2021/06/11 03:26:01;;;;;;;6.10;5.47;;;;;;;;;;4996276;28;20431;-69
2021/06/11 03:28:36;;;;;;;7.40;5.97;;;;;;;;;;4995315;28;20495;-68
2021/06/11 03:31:02;;;;;;;8.17;6.43;;;;;;;;;;4995247;28;20414;-68
2021/06/11 03:33:31;;;;;;;7.90;5.17;;;;;;;;;;4994201;28;20430;-68
2021/06/11 03:36:29;;;;;;;9.40;6.37;;;;;;;;;;4995069;28;20495;-68
2021/06/11 03:39:02;;;;;;;6.73;5.13;;;;;;;;;;4960795;28;20858;-69
2021/06/11 03:41:28;;;;;;;5.53;4.80;;;;;;;;;;4995260;28;20484;-68
2021/06/11 03:43:54;;;;;;;6.40;5.10;;;;;;;;;;4990301;28;20418;-68
2021/06/11 03:46:21;;;;;;;7.30;5.10;;;;;;;;;;4975591;28;20825;-68
2021/06/11 03:48:49;;;;;;;6.63;5.50;;;;;;;;;;4975521;28;20437;-71
2021/06/11 03:51:15;;;;;;;7.43;6.30;;;;;;;;;;4975904;28;20461;-68
2021/06/11 03:53:43;;;;;;;9.20;5.83;;;;;;;;;;4977547;28;20450;-68
2021/06/11 03:56:09;;;;;;;7.20;6.50;;;;;;;;;;4992408;28;20421;-68
2021/06/11 03:58:45;;;;;;;7.77;6.40;;;;;;;;;;4994087;28;20424;-68
2021/06/11 04:01:15;;;;;;;6.77;5.47;;;;;;;;;;4995123;28;20867;-68
2021/06/11 04:03:42;;;;;;;9.63;7.10;;;;;;;;;;4992766;28;20416;-68
2021/06/11 04:06:13;;;;;;;7.53;6.10;;;;;;;;;;4994693;28;20405;-68
2021/06/11 04:08:39;;;;;;;6.87;5.80;;;;;;;;;;4993869;28;20412;-69
2021/06/11 04:11:06;;;;;;;8.47;6.20;;;;;;;;;;4994707;28;20397;-68
2021/06/11 04:13:35;;;;;;;10.90;7.00;;;;;;;;;;4979858;28;20436;-69
2021/06/11 04:16:02;;;;;;;8.93;7.10;;;;;;;;;;4974577;28;20398;-68
2021/06/11 04:18:30;;;;;;;6.87;6.17;;;;;;;;;;4975362;28;20417;-68
2021/06/11 04:21:00;;;;;;;6.30;5.60;;;;;;;;;;4994007;28;20436;-68
2021/06/11 04:23:27;;;;;;;9.10;6.40;;;;;;;;;;4994530;28;20714;-68
2021/06/11 04:25:55;;;;;;;9.90;6.17;;;;;;;;;;4992685;28;20415;-68
2021/06/11 04:28:22;;;;;;;7.67;5.80;;;;;;;;;;4994237;28;20445;-68
2021/06/11 04:30:50;;;;;;;6.77;6.00;;;;;;;;;;4977084;28;20421;-68
2021/06/11 04:33:20;;;;;;;9.13;5.93;;;;;;;;;;4974975;28;20452;-68
2021/06/11 04:35:46;;;;;;;10.77;6.00;;;;;;;;;;4975156;28;20916;-68
2021/06/11 04:38:14;;;;;;;11.00;6.13;;;;;;;;;;4975775;28;20429;-68
2021/06/11 04:40:40;;;;;;;9.20;5.27;;;;;;;;;;4975436;28;20461;-68
2021/06/11 04:43:06;;;;;;;7.77;5.40;;;;;;;;;;4990787;28;20493;-68
2021/06/11 04:45:32;;;;;;;8.17;6.23;;;;;;;;;;4991657;28;20428;-68
2021/06/11 04:47:59;;;;;;;9.80;5.97;;;;;;;;;;4992193;28;20518;-72
2021/06/11 04:50:25;;;;;;;11.73;6.30;;;;;;;;;;4992948;28;20432;-70
2021/06/11 04:52:52;;;;;;;7.97;5.87;;;;;;;;;;4993530;28;20416;-70
2021/06/11 04:55:18;;;;;;;8.40;6.13;;;;;;;;;;4990449;28;20422;-72
2021/06/11 04:57:44;;;;;;;11.00;5.20;;;;;;;;;;4993962;28;20433;-69
2021/06/11 05:00:10;;;;;;;8.47;6.10;;;;;;;;;;4992191;28;20436;-71
2021/06/11 05:02:36;;;;;;;8.43;5.60;;;;;;;;;;4992440;28;20408;-70
2021/06/11 05:05:03;;;;;;;9.13;5.80;;;;;;;;;;4991194;28;20424;-70
2021/06/11 05:07:29;;;;;;;9.27;5.50;;;;;;;;;;4992574;28;20471;-70
2021/06/11 05:09:55;;;;;;;6.90;5.37;;;;;;;;;;4991299;28;20443;-71
2021/06/11 05:12:21;;;;;;;7.37;5.50;;;;;;;;;;4993799;28;20416;-70
2021/06/11 05:14:47;;;;;;;6.00;4.60;;;;;;;;;;4992587;28;20520;-69
2021/06/11 05:17:13;;;;;;;7.30;5.50;;;;;;;;;;4991606;28;20452;-70
2021/06/11 05:19:39;;;;;;;6.13;4.53;;;;;;;;;;4992388;28;20965;-72
2021/06/11 05:22:06;;;;;;;7.57;5.60;;;;;;;;;;4993059;28;20421;-69
2021/06/11 05:24:32;;;;;;;8.83;6.53;;;;;;;;;;4991509;28;20428;-74
2021/06/11 05:26:58;;;;;;;7.90;5.33;;;;;;;;;;4997230;28;20973;-72
2021/06/11 05:29:24;;;;;;;9.73;6.60;;;;;;;;;;4993482;28;20428;-72
2021/06/11 05:31:50;;;;;;;8.33;5.90;;;;;;;;;;4997408;28;20809;-69
2021/06/11 05:34:16;;;;;;;10.37;6.27;;;;;;;;;;4996420;28;20455;-67
2021/06/11 05:36:42;;;;;;;7.40;6.10;;;;;;;;;;4996959;28;20420;-72
2021/06/11 05:39:08;;;;;;;7.87;6.30;;;;;;;;;;4994866;28;20418;-70
2021/06/11 05:41:35;;;;;;;8.63;6.53;;;;;;;;;;4996515;28;20929;-70
2021/06/11 05:44:01;;;;;;;7.73;6.10;;;;;;;;;;4995888;28;20405;-70
2021/06/11 05:46:27;;;;;;;7.87;6.87;;;;;;;;;;4996886;28;20566;-71
2021/06/11 05:48:53;;;;;;;8.50;6.57;;;;;;;;;;4997251;28;20992;-70
2021/06/11 05:51:19;;;;;;;9.67;6.33;;;;;;;;;;4995462;28;20424;-68
2021/06/11 05:53:45;;;;;;;8.87;6.60;;;;;;;;;;4994132;28;20428;-68
2021/06/11 05:56:12;;;;;;;8.07;6.37;;;;;;;;;;4994106;28;20804;-68
2021/06/11 05:58:38;;;;;;;8.37;5.93;;;;;;;;;;4996469;28;20444;-68
2021/06/11 06:01:06;;;;;;;7.90;6.13;;;;;;;;;;4994869;28;20428;-70
2021/06/11 06:03:32;;;;;;;7.87;6.10;;;;;;;;;;4996754;28;20416;-69
2021/06/11 06:05:58;;;;;;;9.70;6.93;;;;;;;;;;4995465;28;20511;-69
2021/06/11 06:08:24;;;;;;;11.40;6.70;;;;;;;;;;4995128;28;20503;-73
2021/06/11 06:10:50;;;;;;;6.30;5.30;;;;;;;;;;4995173;28;20439;-71
2021/06/11 06:13:16;;;;;;;7.20;6.40;;;;;;;;;;4996222;28;20952;-70
2021/06/11 06:15:43;;;;;;;5.70;4.70;;;;;;;;;;4994527;28;20427;-68
2021/06/11 06:18:09;;;;;;;8.43;7.00;;;;;;;;;;4992920;28;20471;-68
2021/06/11 06:20:37;;;;;;;8.50;6.67;;;;;;;;;;4994265;28;20169;-69
2021/06/11 06:23:03;;;;;;;8.57;6.03;;;;;;;;;;4996613;28;20417;-71
2021/06/11 06:25:29;;;;;;;9.73;6.83;;;;;;;;;;4995482;28;20537;-72
2021/06/11 06:27:55;;;;;;;6.93;5.50;;;;;;;;;;4996281;28;20460;-73
2021/06/11 06:30:23;;;;;;;6.97;5.83;;;;;;;;;;4994392;28;20738;-73
2021/06/11 06:32:49;;;;;;;6.40;5.20;;;;;;;;;;4994992;28;20742;-72
2021/06/11 06:35:15;;;;;;;6.07;5.20;;;;;;;;;;4993405;28;20772;-72
2021/06/11 06:37:41;;;;;;;7.40;5.50;;;;;;;;;;4995053;28;20433;-72
2021/06/11 06:40:08;;;;;;;5.97;5.03;;;;;;;;;;4993570;28;20413;-71
2021/06/11 06:42:34;;;;;;;5.73;4.90;;;;;;;;;;4995769;28;20413;-71
2021/06/11 06:45:01;;;;;;;6.93;5.30;;;;;;;;;;4994189;28;20416;-72
2021/06/11 06:47:27;;;;;;;8.70;6.60;;;;;;;;;;4995686;28;20556;-70
2021/06/11 06:49:53;;;;;;;7.63;5.30;;;;;;;;;;4994648;28;20490;-72
2021/06/11 06:52:19;;;;;;;4.97;4.27;;;;;;;;;;5006738;28;20716;-71
2021/06/11 06:54:45;;;;;;;7.53;5.40;;;;;;;;;;4988882;28;20416;-72
2021/06/11 06:57:12;;;;;;;5.83;4.93;;;;;;;;;;4986532;28;20452;-71
2021/06/11 06:59:38;;;;;;;5.70;5.00;;;;;;;;;;4992663;28;20490;-75
2021/06/11 07:02:04;;;;;;;7.40;6.07;;;;;;;;;;4990970;28;20433;-71
2021/06/11 07:04:30;;;;;;;5.43;4.83;;;;;;;;;;4993173;28;20416;-72
2021/06/11 07:06:57;;;;;;;8.43;5.70;;;;;;;;;;4987945;28;20464;-73
2021/06/11 07:09:23;;;;;;;6.17;5.37;;;;;;;;;;4992216;28;20413;-73
2021/06/11 07:11:51;;;;;;;8.00;4.83;;;;;;;;;;4994190;28;20461;-72
2021/06/11 07:14:18;;;;;;;6.90;4.90;;;;;;;;;;4992905;28;20791;-74
2021/06/11 07:16:44;;;;;;;5.70;4.37;;;;;;;;;;4992896;28;20763;-73
2021/06/11 07:19:11;;;;;;;6.93;4.70;;;;;;;;;;4993768;28;20445;-72
2021/06/11 07:21:37;;;;;;;6.90;4.80;;;;;;;;;;4994706;28;20913;-71
2021/06/11 07:24:03;;;;;;;6.10;4.73;;;;;;;;;;4994487;28;20420;-71
2021/06/11 07:26:29;;;;;;;6.57;4.50;;;;;;;;;;4993729;28;20456;-69
2021/06/11 07:28:56;;;;;;;6.40;4.80;;;;;;;;;;4991834;28;20470;-70
2021/06/11 07:31:22;;;;;;;7.13;5.03;;;;;;;;;;4991722;28;20444;-73
2021/06/11 07:33:48;;;;;;;8.10;4.80;;;;;;;;;;4994280;28;20464;-71
2021/06/11 07:36:14;;;;;;;4.87;4.00;;;;;;;;;;4990938;28;20417;-72
2021/06/11 07:38:40;;;;;;;13.63;5.30;;;;;;;;;;4987928;28;20612;-72
2021/06/11 07:41:06;;;;;;;6.63;5.83;;;;;;;;;;4989223;28;20522;-72
2021/06/11 07:43:32;;;;;;;6.03;5.13;;;;;;;;;;4994587;28;20408;-71
2021/06/11 07:45:58;;;;;;;7.03;4.97;;;;;;;;;;4993643;28;20449;-70
2021/06/11 07:48:25;;;;;;;5.40;3.90;;;;;;;;;;4990538;28;20864;-71
2021/06/11 07:50:51;;;;;;;5.00;4.50;;;;;;;;;;4990942;28;20431;-71
2021/06/11 07:53:17;;;;;;;7.70;4.90;;;;;;;;;;4991468;28;20420;-69
2021/06/11 07:55:43;;;;;;;5.70;4.00;;;;;;;;;;4990586;28;20424;-69
2021/06/11 07:58:09;;;;;;;5.70;4.60;;;;;;;;;;4993182;28;20956;-69
2021/06/11 08:00:35;;;;;;;7.93;4.37;;;;;;;;;;4990601;28;20533;-70
2021/06/11 08:03:01;;;;;;;5.33;3.70;;;;;;;;;;4989878;28;20521;-69
2021/06/11 08:05:28;;;;;;;5.13;4.23;;;;;;;;;;4989906;28;20427;-69
2021/06/11 08:07:54;;;;;;;4.57;3.70;;;;;;;;;;4993244;28;20468;-70
2021/06/11 08:10:21;;;;;;;4.30;3.60;;;;;;;;;;4988241;28;20428;-73
2021/06/11 08:12:47;;;;;;;4.10;3.33;;;;;;;;;;4988471;28;20428;-75
2021/06/11 08:15:14;;;;;;;4.93;3.70;;;;;;;;;;4981190;28;20544;-72
2021/06/11 08:17:40;;;;;;;4.60;3.60;;;;;;;;;;4993052;28;20522;-73
2021/06/11 08:20:07;;;;;;;5.80;3.77;;;;;;;;;;4989958;28;20745;-73
2021/06/11 08:22:33;;;;;;;5.90;4.20;;;;;;;;;;4987683;28;20437;-73
2021/06/11 08:24:59;;;;;;;4.93;3.87;;;;;;;;;;4987210;28;20826;-73
2021/06/11 08:27:25;;;;;;;6.40;4.17;;;;;;;;;;4994037;28;20468;-72
2021/06/11 08:29:51;;;;;;;11.70;3.77;;;;;;;;;;4986083;28;20416;-73
2021/06/11 08:32:17;;;;;;;7.40;4.27;;;;;;;;;;4993079;28;20495;-73
2021/06/11 08:34:44;;;;;;;5.30;4.30;;;;;;;;;;4994296;28;20424;-73
2021/06/11 08:37:11;;;;;;;4.00;3.50;;;;;;;;;;4991953;28;20493;-73
2021/06/11 08:39:37;;;;;;;4.73;3.50;;;;;;;;;;4993466;28;20427;-75
2021/06/11 08:42:06;;;;;;;5.20;4.07;;;;;;;;;;4992651;28;20921;-70
2021/06/11 08:44:32;;;;;;;5.47;3.93;;;;;;;;;;4991531;28;20507;-72
2021/06/11 08:46:58;;;;;;;4.07;3.60;;;;;;;;;;4989598;28;20479;-72
2021/06/11 08:49:24;;;;;;;4.73;3.60;;;;;;;;;;4988754;28;20433;-72
2021/06/11 08:51:59;;;;;;;5.30;3.87;;;;;;;;;;4992062;28;20416;-69
2021/06/11 08:54:26;;;;;;;4.60;3.97;;;;;;;;;;4989890;28;20439;-67
2021/06/11 08:56:53;;;;;;;5.57;4.40;;;;;;;;;;4991790;28;20438;-70
2021/06/11 08:59:19;;;;;;;5.60;3.93;;;;;;;;;;4992587;28;20432;-68
2021/06/11 09:01:45;;;;;;;4.67;3.60;;;;;;;;;;4991237;28;20440;-70
2021/06/11 09:04:11;;;;;;;4.83;3.60;;;;;;;;;;4991963;28;20408;-68
2021/06/11 09:06:37;;;;;;;6.83;3.57;;;;;;;;;;4990466;28;20488;-71
2021/06/11 09:09:05;;;;;;;6.27;3.77;;;;;;;;;;4993204;28;20492;-74
2021/06/11 09:11:32;;;;;;;5.23;3.77;;;;;;;;;;4991468;28;20434;-74
2021/06/11 09:14:01;;;;;;;4.80;4.17;;;;;;;;;;4994864;28;20964;-74
2021/06/11 09:16:28;;;;;;;6.43;4.00;;;;;;;;;;4993265;28;20746;-73
2021/06/11 09:18:55;;;;;;;5.23;3.90;;;;;;;;;;4995358;28;20432;-74
2021/06/11 09:21:27;;;;;;;4.90;3.47;;;;;;;;;;4991402;28;20448;-75
2021/06/11 09:24:11;;;;;;;7.50;4.27;;;;;;;;;;4974564;28;20404;-74
2021/06/11 09:26:37;;;;;;;6.13;3.83;;;;;;;;;;4990311;28;20448;-73
2021/06/11 09:29:22;;;;;;;4.20;3.80;;;;;;;;;;4984502;28;20448;-70
2021/06/11 09:31:48;;;;;;;5.10;3.63;;;;;;;;;;4987591;28;20942;-71
2021/06/11 09:34:28;;;;;;;4.40;3.57;;;;;;;;;;4997975;28;20412;-73
2021/06/11 09:37:14;;;;;;;5.33;3.47;;;;;;;;;;4988591;28;20643;-73
2021/06/11 09:39:43;;;;;;;5.30;4.30;;;;;;;;;;4998895;28;20497;-73
2021/06/11 09:42:09;;;;;;;4.47;3.53;;;;;;;;;;4995731;28;20451;-73
2021/06/11 09:44:36;;;;;;;7.03;5.10;;;;;;;;;;4995820;28;20473;-74
2021/06/11 09:47:02;;;;;;;3.70;3.13;;;;;;;;;;4989801;28;20471;-73
2021/06/11 09:49:29;;;;;;;8.80;4.60;;;;;;;;;;4987268;28;20418;-73
2021/06/11 09:52:04;;;;;;;5.77;4.10;;;;;;;;;;4984039;28;20423;-73
2021/06/11 09:54:31;;;;;;;3.97;3.47;;;;;;;;;;4985255;28;20415;-75
2021/06/11 09:56:57;;;;;;;5.13;3.27;;;;;;;;;;4992971;28;20452;-75
2021/06/11 09:59:42;;;;;;;6.90;3.70;;;;;;;;;;4988783;28;20434;-74
2021/06/11 10:02:20;;;;;;;4.57;4.10;;;;;;;;;;4980972;28;20424;-71
2021/06/11 10:04:47;;;;;;;4.37;3.77;;;;;;;;;;4983232;28;20466;-71
2021/06/11 10:07:14;;;;;;;5.30;4.37;;;;;;;;;;4989055;28;21055;-72
2021/06/11 10:09:41;;;;;;;6.57;3.47;;;;;;;;;;4990683;28;20852;-73
2021/06/11 10:12:08;;;;;;;5.70;4.13;;;;;;;;;;4984021;28;20429;-71
2021/06/11 10:14:36;;;;;;;5.03;3.90;;;;;;;;;;4989085;28;20432;-71
2021/06/11 10:17:02;;;;;;;6.73;4.43;;;;;;;;;;4985454;28;20518;-72
2021/06/11 10:19:28;;;;;;;7.90;4.20;;;;;;;;;;4989215;28;20975;-73
2021/06/11 10:21:54;;;;;;;5.80;3.93;;;;;;;;;;4990747;28;20473;-71
2021/06/11 10:24:21;;;;;;;6.60;5.00;;;;;;;;;;4990067;28;20467;-73
2021/06/11 10:26:48;;;;;;;4.40;3.60;;;;;;;;;;4989415;28;20510;-73
2021/06/11 10:29:15;;;;;;;5.40;3.80;;;;;;;;;;4986528;28;20441;-73
2021/06/11 10:31:41;;;;;;;5.77;4.63;;;;;;;;;;4986925;28;20433;-70
2021/06/11 10:34:07;;;;;;;4.73;4.23;;;;;;;;;;4984121;28;20416;-69
2021/06/11 10:36:39;;;;;;;5.43;4.47;;;;;;;;;;4985791;28;20548;-69
2021/06/11 10:39:08;;;;;;;7.10;4.63;;;;;;;;;;4985537;28;21125;-68
2021/06/11 10:41:52;;;;;;;5.70;5.07;;;;;;;;;;4986605;28;20416;-69
2021/06/11 10:44:31;;;;;;;4.60;3.67;;;;;;;;;;4988844;28;20420;-69
2021/06/11 10:47:15;;;;;;;4.70;3.93;;;;;;;;;;4983216;28;20452;-69
2021/06/11 10:50:00;;;;;;;5.83;4.20;;;;;;;;;;4983983;28;20421;-69
2021/06/11 10:52:35;;;;;;;4.40;3.40;;;;;;;;;;4987889;28;20516;-69
2021/06/11 10:55:21;;;;;;;4.00;3.57;;;;;;;;;;4994652;28;20420;-69
2021/06/11 10:57:53;;;;;;;6.60;4.47;;;;;;;;;;4993685;28;20448;-69
2021/06/11 11:00:22;;;;;;;7.30;4.20;;;;;;;;;;4982468;28;20424;-69
2021/06/11 11:02:49;;;;;;;5.90;4.63;;;;;;;;;;4993284;28;20432;-69
2021/06/11 11:05:27;;;;;;;4.43;3.80;;;;;;;;;;4984871;28;20522;-69
2021/06/11 11:07:54;;;;;;;5.57;4.13;;;;;;;;;;4990374;28;20475;-69
2021/06/11 11:10:34;;;;;;;5.40;4.20;;;;;;;;;;4994925;28;20552;-69
2021/06/11 11:13:01;;;;;;;5.60;4.00;;;;;;;;;;4990964;28;20790;-69
2021/06/11 11:15:33;;;;;;;5.40;3.60;;;;;;;;;;4994304;28;20456;-68
2021/06/11 11:18:00;;;;;;;7.23;4.87;;;;;;;;;;4991873;28;20521;-69
2021/06/11 11:20:34;;;;;;;6.80;4.20;;;;;;;;;;4989780;28;20427;-69
2021/06/11 11:23:01;;;;;;;6.37;4.47;;;;;;;;;;4992294;28;20806;-69
2021/06/11 11:25:27;;;;;;;6.80;3.93;;;;;;;;;;4979965;28;20429;-69
2021/06/11 11:27:55;;;;;;;6.57;4.27;;;;;;;;;;4989902;28;20832;-69
2021/06/11 11:30:23;;;;;;;7.43;4.60;;;;;;;;;;4993101;28;20420;-69
2021/06/11 11:32:50;;;;;;;5.53;3.63;;;;;;;;;;4987653;28;20428;-69
2021/06/11 11:35:17;;;;;;;5.50;4.90;;;;;;;;;;4980147;28;20515;-68
2021/06/11 11:37:44;;;;;;;4.40;3.70;;;;;;;;;;4991464;28;20541;-69
2021/06/11 11:40:10;;;;;;;7.43;3.97;;;;;;;;;;4993366;28;20439;-69
2021/06/11 11:42:39;;;;;;;3.67;3.30;;;;;;;;;;4983814;28;20436;-69
2021/06/11 11:45:15;;;;;;;4.50;3.53;;;;;;;;;;4986067;28;20502;-70
2021/06/11 11:47:42;;;;;;;4.93;3.87;;;;;;;;;;4987395;28;20557;-69
2021/06/11 11:50:24;;;;;;;4.97;3.63;;;;;;;;;;4963998;28;20819;-69
2021/06/11 11:52:50;;;;;;;4.63;4.00;;;;;;;;;;5004300;23;20403;-67
2021/06/11 11:55:17;;;;;;;5.13;3.83;;;;;;;;;;5007720;28;20473;-67
2021/06/11 11:57:45;;;;;;;4.17;3.77;;;;;;;;;;5011203;28;20435;-66
2021/06/11 12:00:11;;;;;;;4.43;3.87;;;;;;;;;;5013629;28;20435;-66
2021/06/11 12:02:37;;;;;;;4.87;4.37;;;;;;;;;;5010952;28;20792;-67
2021/06/11 12:05:04;;;;;;;6.27;3.83;;;;;;;;;;5006601;28;20431;-67
2021/06/11 12:07:30;;;;;;;5.30;3.70;;;;;;;;;;5010470;28;20555;-66
2021/06/11 12:09:58;;;;;;;3.77;3.40;;;;;;;;;;5009725;28;20443;-66
2021/06/11 12:12:25;;;;;;;6.83;3.10;;;;;;;;;;5009475;28;20454;-66
2021/06/11 12:14:51;;;;;;;5.77;3.17;;;;;;;;;;5012596;28;20451;-67
2021/06/11 12:17:17;;;;;;;4.20;3.20;;;;;;;;;;5011360;28;20419;-67
2021/06/11 12:19:43;;;;;;;3.97;3.50;;;;;;;;;;5006793;28;20467;-66
2021/06/11 12:22:09;;;;;;;3.47;2.93;;;;;;;;;;5000913;28;20856;-66
2021/06/11 12:24:35;;;;;;;4.37;3.37;;;;;;;;;;5008610;28;20457;-67
2021/06/11 12:27:01;;;;;;;3.97;3.50;;;;;;;;;;5006422;28;20520;-69
2021/06/11 12:29:27;;;;;;;4.70;3.80;;;;;;;;;;5003235;28;20431;-67
2021/06/11 12:31:53;;;;;;;4.50;3.23;;;;;;;;;;5001577;28;20428;-68
2021/06/11 12:34:19;;;;;;;3.83;3.23;;;;;;;;;;5011012;28;20530;-68
2021/06/11 12:36:46;;;;;;;4.00;3.43;;;;;;;;;;5011901;28;21037;-68
2021/06/11 12:39:12;;;;;;;3.63;2.80;;;;;;;;;;5005735;28;20431;-69
2021/06/11 12:41:38;;;;;;;3.60;3.00;;;;;;;;;;5002294;28;20953;-67
2021/06/11 12:44:15;;;;;;;4.30;3.60;;;;;;;;;;5010122;28;20517;-67
2021/06/11 12:46:42;;;;;;;4.50;3.43;;;;;;;;;;5008815;28;20451;-67
2021/06/11 12:49:08;;;;;;;3.40;2.93;;;;;;;;;;5003586;28;20432;-67
2021/06/11 12:51:34;;;;;;;5.17;3.40;;;;;;;;;;5006998;28;20443;-67
2021/06/11 12:54:00;;;;;;;3.60;3.17;;;;;;;;;;5003894;28;20470;-68
2021/06/11 12:56:26;;;;;;;4.23;3.50;;;;;;;;;;4997186;28;20426;-68
2021/06/11 12:58:52;;;;;;;5.80;4.00;;;;;;;;;;5010601;28;20431;-67
2021/06/11 13:01:18;;;;;;;4.80;3.70;;;;;;;;;;5010837;28;20485;-68
2021/06/11 13:03:44;;;;;;;6.00;4.20;;;;;;;;;;5001922;28;20932;-68
2021/06/11 13:06:11;;;;;;;4.80;3.43;;;;;;;;;;5003297;28;20443;-67
2021/06/11 13:08:37;;;;;;;4.63;3.00;;;;;;;;;;5003586;28;20463;-70
2021/06/11 13:11:03;;;;;;;4.10;3.37;;;;;;;;;;5005935;28;20886;-68
2021/06/11 13:13:29;;;;;;;4.20;3.40;;;;;;;;;;5008981;28;20431;-70
2021/06/11 13:15:55;;;;;;;4.30;3.90;;;;;;;;;;5008585;28;20431;-69
2021/06/11 13:18:21;;;;;;;4.37;3.40;;;;;;;;;;5008255;28;20432;-67
2021/06/11 13:20:47;;;;;;;6.10;3.43;;;;;;;;;;5009690;28;20758;-71
2021/06/11 13:23:13;;;;;;;5.00;4.03;;;;;;;;;;5010201;28;20495;-71
2021/06/11 13:25:39;;;;;;;5.60;3.10;;;;;;;;;;5000916;28;20969;-71
2021/06/11 13:28:05;;;;;;;6.17;2.93;;;;;;;;;;5007747;28;20552;-71
2021/06/11 13:30:32;;;;;;;3.77;3.33;;;;;;;;;;5007262;28;20514;-70
2021/06/11 13:32:58;;;;;;;4.40;3.17;;;;;;;;;;5009898;28;20457;-69
2021/06/11 13:35:24;;;;;;;4.43;3.50;;;;;;;;;;5008321;28;20439;-69
2021/06/11 13:37:50;;;;;;;3.50;3.00;;;;;;;;;;5006629;28;20431;-69
2021/06/11 13:40:17;;;;;;;3.80;3.37;;;;;;;;;;5014656;28;20430;-68
2021/06/11 13:42:43;;;;;;;6.33;3.13;;;;;;;;;;5011003;28;20434;-68
2021/06/11 13:45:13;;;;;;;3.90;2.53;;;;;;;;;;5008073;28;20439;-70
2021/06/11 13:47:44;;;;;;;4.00;2.30;;;;;;;;;;5009406;28;20454;-70
2021/06/11 13:50:14;;;;;;;4.00;2.80;;;;;;;;;;5007082;28;20986;-70
2021/06/11 13:52:40;;;;;;;3.30;2.83;;;;;;;;;;5007138;28;89961;-71
2021/06/11 13:55:07;;;;;;;3.47;2.63;;;;;;;;;;5012011;28;20419;-69
2021/06/11 13:57:34;;;;;;;3.77;2.60;;;;;;;;;;5007431;28;20423;-69
2021/06/11 14:00:01;;;;;;;3.10;2.70;;;;;;;;;;5005564;28;20442;-69
2021/06/11 14:02:27;;;;;;;3.45;2.90;;;;;;;;;;5007713;28;20425;-68
2021/06/11 14:04:53;;;;;;;4.20;2.60;;;;;;;;;;5011193;28;20241;-68
2021/06/11 14:07:19;;;;;;;2.97;2.13;;;;;;;;;;5013170;28;20456;-71
2021/06/11 14:09:45;;;;;;;2.80;2.20;;;;;;;;;;5009581;28;20516;-70
2021/06/11 14:12:11;;;;;;;3.43;2.53;;;;;;;;;;5008717;28;20431;-69
2021/06/11 14:14:39;;;;;;;3.90;2.90;;;;;;;;;;5026317;23;21709;-68
2021/06/11 14:17:05;;;;;;;4.73;2.40;;;;;;;;;;4999826;28;20427;-68
2021/06/11 14:19:31;;;;;;;3.27;2.80;;;;;;;;;;5006982;23;20435;-69
2021/06/11 14:21:57;;;;;;;3.90;2.50;;;;;;;;;;4991251;28;20485;-69
2021/06/11 14:24:23;;;;;;;3.03;2.53;;;;;;;;;;4992006;28;20443;-68
2021/06/11 14:26:49;;;;;;;2.97;2.47;;;;;;;;;;4990651;28;20459;-68
2021/06/11 14:29:15;;;;;;;3.93;2.40;;;;;;;;;;5003503;28;20427;-70
2021/06/11 14:31:41;;;;;;;4.10;2.50;;;;;;;;;;4991406;28;20547;-68
2021/06/11 14:34:07;;;;;;;2.77;2.17;;;;;;;;;;4986678;28;20817;-69
2021/06/11 14:36:33;;;;;;;4.20;3.20;;;;;;;;;;4993597;28;20992;-69
2021/06/11 14:38:59;;;;;;;4.03;2.60;;;;;;;;;;4994055;28;20411;-69
2021/06/11 14:41:25;;;;;;;3.10;2.17;;;;;;;;;;4995528;28;20562;-67
2021/06/11 14:43:52;;;;;;;2.63;2.40;;;;;;;;;;4991433;28;20441;-69
2021/06/11 14:46:18;;;;;;;3.27;2.37;;;;;;;;;;4991823;28;20956;-67